Terminal Aerodrome Forecast
Issued by NWS Pocatello, ID

Home | Current Version | Previous Version | Text Only | Print | Product List | Glossary On
Versions: 1 2 3 4 5 6 7 8 9 10 11 12
000
FTUS45 KPIH 052320
TAFBYI
TAF
KBYI 052320Z 0600/0624 16012G20KT P6SM FEW090 BKN200
     FM060500 05005KT P6SM VCSH SCT080 BKN120
     FM061200 07008KT P6SM SCT080 BKN180
     FM061800 06012G20KT P6SM VCTS SCT070CB BKN120=

USA.gov is the U.S. government's official web portal to all federal, state and local government web resources and services.